createdAt,value
2022-11-16T00:00:38.512Z,99478.84
2022-11-16T00:03:08.254Z,99473.94
2022-11-16T00:05:37.825Z,99471.41
2022-11-16T00:08:07.584Z,99459.41
2022-11-16T00:10:37.409Z,99456.31
2022-11-16T00:13:09.224Z,99460.16
2022-11-16T00:15:39.369Z,99456.97
2022-11-16T00:18:09.133Z,99465.44
2022-11-16T00:20:40.307Z,99460.25
2022-11-16T00:23:09.804Z,99463.66
2022-11-16T00:25:39.696Z,99459.72
2022-11-16T00:28:10.749Z,99457.34
2022-11-16T00:30:40.492Z,99451.78
2022-11-16T00:33:14.543Z,99455.06
2022-11-16T00:35:44.066Z,99448.38
2022-11-16T00:38:13.662Z,99449.59
2022-11-16T00:40:43.113Z,99450.97
2022-11-16T00:43:14.088Z,99449.81
2022-11-16T00:45:43.815Z,99450.78
2022-11-16T00:48:13.750Z,99451.50
2022-11-16T00:50:43.308Z,99445.19
2022-11-16T00:53:13.748Z,99450.78
2022-11-16T00:55:44.347Z,99441.63
2022-11-16T00:58:15.446Z,99439.44
2022-11-16T01:00:46.341Z,99435.47
2022-11-16T01:03:15.837Z,99425.78
2022-11-16T01:05:45.583Z,99422.38
2022-11-16T01:08:15.512Z,99418.72
2022-11-16T01:10:45.311Z,99415.03
2022-11-16T01:13:15.723Z,99419.28
2022-11-16T01:15:48.480Z,99408.44
2022-11-16T01:18:18.089Z,99404.41
2022-11-16T01:20:47.587Z,99403.63
2022-11-16T01:23:17.155Z,99402.97
2022-11-16T01:25:57.233Z,99398.31
2022-11-16T01:28:28.651Z,99397.09
2022-11-16T01:30:58.161Z,99392.56
2022-11-16T01:33:27.729Z,99379.75
2022-11-16T01:35:57.216Z,99380.44
2022-11-16T01:38:29.787Z,99371.38
2022-11-16T01:40:59.680Z,99378.91
2022-11-16T01:43:48.890Z,99370.03
2022-11-16T01:46:19.822Z,99363.06
2022-11-16T01:48:53.474Z,99371.50
2022-11-16T01:51:23.711Z,99367.84
2022-11-16T01:53:53.637Z,99378.19
2022-11-16T01:56:23.740Z,99374.06
2022-11-16T01:58:53.392Z,99373.28
2022-11-16T02:01:24.417Z,99368.38
2022-11-16T02:03:54.396Z,99364.41
2022-11-16T02:06:33.434Z,99353.75
2022-11-16T02:09:30.709Z,99346.50
2022-11-16T02:12:15.893Z,99348.69
2022-11-16T02:14:53.042Z,99355.97
2022-11-16T02:17:28.762Z,99350.41
2022-11-16T02:20:16.217Z,99344.28
2022-11-16T02:22:53.130Z,99349.63
2022-11-16T02:25:28.012Z,99345.22
2022-11-16T02:28:06.466Z,99339.25
2022-11-16T02:30:38.488Z,99336.28
2022-11-16T02:33:10.925Z,99326.47
2022-11-16T02:35:43.652Z,99329.59
2022-11-16T02:38:15.170Z,99337.31
2022-11-16T02:40:48.058Z,99338.72
2022-11-16T02:43:20.559Z,99337.13
2022-11-16T02:45:54.634Z,99336.72
2022-11-16T02:48:25.793Z,99330.72
2022-11-16T02:50:56.217Z,99330.63
2022-11-16T02:53:27.165Z,99324.41
2022-11-16T02:55:57.026Z,99323.84
2022-11-16T02:58:27.116Z,99307.72
2022-11-16T03:01:01.603Z,99317.91
2022-11-16T03:03:38.181Z,99329.41
2022-11-16T03:06:11.496Z,99328.47
2022-11-16T03:08:43.185Z,99337.03
2022-11-16T03:11:30.754Z,99333.72
2022-11-16T03:14:04.576Z,99341.66
2022-11-16T03:16:36.857Z,99334.38
2022-11-16T03:19:08.656Z,99337.97
2022-11-16T03:21:38.990Z,99339.47
2022-11-16T03:24:08.986Z,99324.66
2022-11-16T03:26:44.294Z,99322.31
2022-11-16T03:29:15.834Z,99315.44
2022-11-16T03:31:48.607Z,99320.66
2022-11-16T03:34:20.539Z,99319.97
2022-11-16T03:36:51.453Z,99311.44
2022-11-16T03:39:23.326Z,99309.44
2022-11-16T03:41:52.805Z,99309.06
2022-11-16T03:44:23.227Z,99304.16
2022-11-16T03:46:54.205Z,99300.59
2022-11-16T03:49:23.787Z,99299.16
2022-11-16T03:51:53.388Z,99297.84
2022-11-16T03:54:22.975Z,99290.25
2022-11-16T03:56:52.624Z,99285.59
2022-11-16T03:59:22.164Z,99283.84
2022-11-16T04:01:51.679Z,99282.41
2022-11-16T04:04:39.909Z,99285.16
2022-11-16T04:07:27.075Z,99280.41
2022-11-16T04:10:14.376Z,99266.94
2022-11-16T04:13:02.717Z,99268.91
2022-11-16T04:15:52.514Z,99271.34
2022-11-16T04:18:39.352Z,99277.56
2022-11-16T04:21:35.337Z,99271.72
2022-11-16T04:24:14.419Z,99253.03
2022-11-16T04:27:02.421Z,99249.44
2022-11-16T04:29:32.170Z,99258.59
2022-11-16T04:32:19.271Z,99244.66
2022-11-16T04:35:05.271Z,99248.81
2022-11-16T04:37:52.624Z,99254.38
2022-11-16T04:40:23.695Z,99255.34
2022-11-16T04:42:52.683Z,99254.94
2022-11-16T04:45:39.993Z,99246.94
2022-11-16T04:48:09.549Z,99249.34
2022-11-16T04:50:39.612Z,99244.19
2022-11-16T04:53:10.900Z,99242.22
2022-11-16T04:55:40.516Z,99229.50
2022-11-16T04:58:10.024Z,99224.84
2022-11-16T05:00:40.931Z,99222.97
2022-11-16T05:03:10.682Z,99229.28
2022-11-16T05:05:40.371Z,99233.63
2022-11-16T05:08:11.306Z,99228.91
2022-11-16T05:10:40.917Z,99229.38
2022-11-16T05:13:11.536Z,99234.28
2022-11-16T05:15:41.622Z,99239.84
2022-11-16T05:18:11.421Z,99235.91
2022-11-16T05:20:58.250Z,99231.00
2022-11-16T05:23:46.837Z,99229.19
2022-11-16T05:26:16.362Z,99225.41
2022-11-16T05:28:45.828Z,99225.44
2022-11-16T05:31:15.386Z,99234.78
2022-11-16T05:33:45.148Z,99242.59
2022-11-16T05:36:14.877Z,99245.69
2022-11-16T05:38:45.714Z,99234.38
2022-11-16T05:41:15.349Z,99227.66
2022-11-16T05:43:45.044Z,99226.53
2022-11-16T05:46:14.698Z,99222.66
2022-11-16T05:48:44.242Z,99223.28
2022-11-16T05:51:13.892Z,99225.28
2022-11-16T05:53:44.176Z,99229.94
2022-11-16T05:56:15.789Z,99231.00
2022-11-16T05:58:45.683Z,99233.78
2022-11-16T06:01:15.505Z,99227.31
2022-11-16T06:03:45.055Z,99220.88
2022-11-16T06:06:24.538Z,99222.09
2022-11-16T06:08:54.329Z,99222.25
2022-11-16T06:11:25.744Z,99222.91
2022-11-16T06:13:56.407Z,99221.56
2022-11-16T06:16:26.041Z,99218.47
2022-11-16T06:18:55.788Z,99228.38
2022-11-16T06:21:25.389Z,99228.22
2022-11-16T06:23:55.213Z,99221.31
2022-11-16T06:26:26.511Z,99214.59
2022-11-16T06:28:56.135Z,99209.72
2022-11-16T06:31:25.726Z,99199.94
2022-11-16T06:33:55.309Z,99195.59
2022-11-16T06:36:24.854Z,99202.16
2022-11-16T06:38:54.405Z,99199.88
2022-11-16T06:41:24.183Z,99213.97
2022-11-16T06:43:55.091Z,99207.09
2022-11-16T06:46:25.641Z,99202.16
2022-11-16T06:48:55.350Z,99195.31
2022-11-16T06:51:25.397Z,99197.53
2022-11-16T06:53:54.937Z,99200.16
2022-11-16T06:56:24.729Z,99200.06
2022-11-16T06:58:56.517Z,99200.50
2022-11-16T07:01:26.239Z,99196.72
2022-11-16T07:03:55.762Z,99189.84
2022-11-16T07:06:26.009Z,99186.78
2022-11-16T07:08:55.502Z,99185.28
2022-11-16T07:11:25.036Z,99188.16
2022-11-16T07:13:56.553Z,99188.47
2022-11-16T07:16:27.107Z,99182.53
2022-11-16T07:18:59.148Z,99194.13
2022-11-16T07:21:28.744Z,99198.16
2022-11-16T07:23:58.419Z,99199.44
2022-11-16T07:26:28.888Z,99188.44
2022-11-16T07:29:00.484Z,99187.69
2022-11-16T07:31:30.135Z,99177.34
2022-11-16T07:33:59.698Z,99177.22
2022-11-16T07:36:29.401Z,99166.47
2022-11-16T07:38:59.342Z,99173.88
2022-11-16T07:41:28.980Z,99171.81
2022-11-16T07:44:01.165Z,99165.81
2022-11-16T07:46:47.796Z,99163.47
2022-11-16T07:49:19.223Z,99161.94
2022-11-16T07:51:49.005Z,99157.47
2022-11-16T07:54:18.553Z,99166.41
2022-11-16T07:56:48.300Z,99145.22
2022-11-16T07:59:19.289Z,99155.09
2022-11-16T08:01:49.136Z,99153.94
2022-11-16T08:04:18.816Z,99144.53
2022-11-16T08:06:50.954Z,99148.84
2022-11-16T08:09:20.596Z,99149.59
2022-11-16T08:11:51.396Z,99157.88
2022-11-16T08:14:22.979Z,99150.66
2022-11-16T08:16:53.355Z,99151.34
2022-11-16T08:19:22.999Z,99141.06
2022-11-16T08:21:52.546Z,99141.78
2022-11-16T08:24:22.413Z,99139.22
2022-11-16T08:26:52.185Z,99145.34
2022-11-16T08:29:23.351Z,99131.31
2022-11-16T08:31:53.249Z,99130.41
2022-11-16T08:34:23.048Z,99120.13
2022-11-16T08:36:52.988Z,99115.50
2022-11-16T08:39:22.674Z,99109.56
2022-11-16T08:41:52.183Z,99113.28
2022-11-16T08:44:23.255Z,99117.63
2022-11-16T08:46:52.763Z,99116.34
2022-11-16T08:49:22.320Z,99108.59
2022-11-16T08:51:51.953Z,99106.63
2022-11-16T08:54:21.435Z,99104.31
2022-11-16T08:56:50.950Z,99106.81
2022-11-16T08:59:20.473Z,99099.31
2022-11-16T09:01:51.537Z,99105.19
2022-11-16T09:04:21.115Z,99106.50
2022-11-16T09:06:52.798Z,99098.09
2022-11-16T09:09:22.362Z,99107.50
2022-11-16T09:11:53.598Z,99095.53
2022-11-16T09:14:38.743Z,99095.00
2022-11-16T09:17:10.204Z,99088.16
2022-11-16T09:19:39.723Z,99084.72
2022-11-16T09:22:09.322Z,99068.47
2022-11-16T09:24:38.926Z,99063.56
2022-11-16T09:27:08.495Z,99055.75
2022-11-16T09:29:38.341Z,99046.38
2022-11-16T09:32:08.129Z,99046.66
2022-11-16T09:34:39.276Z,99051.16
2022-11-16T09:37:09.230Z,99050.75
2022-11-16T09:39:38.720Z,99035.75
2022-11-16T09:42:17.589Z,99027.50
2022-11-16T09:45:04.963Z,99033.38
2022-11-16T09:47:41.494Z,99019.66
2022-11-16T09:50:18.447Z,99016.41
2022-11-16T09:55:37.133Z,98990.88
2022-11-16T09:58:09.803Z,98989.72
2022-11-16T10:00:42.583Z,98983.56
2022-11-16T10:03:13.197Z,98978.47
2022-11-16T10:05:47.116Z,98981.84
2022-11-16T10:08:21.314Z,98972.81
2022-11-16T10:10:55.612Z,98962.31
2022-11-16T10:13:31.227Z,98967.44
2022-11-16T10:16:06.247Z,98957.16
2022-11-16T10:18:44.260Z,98950.22
2022-11-16T10:21:26.806Z,98953.34
2022-11-16T10:24:06.634Z,98949.66
2022-11-16T10:26:39.745Z,98940.81
2022-11-16T10:29:20.836Z,98937.53
2022-11-16T10:32:04.521Z,98933.09
2022-11-16T10:34:39.667Z,98928.81
2022-11-16T10:37:14.432Z,98927.38
2022-11-16T10:39:43.989Z,98918.91
2022-11-16T10:42:15.605Z,98911.97
2022-11-16T10:44:47.149Z,98906.72
2022-11-16T10:47:20.877Z,98903.94
2022-11-16T10:49:54.768Z,98901.13
2022-11-16T10:52:26.288Z,98899.25
2022-11-16T10:54:55.939Z,98884.34
2022-11-16T10:57:26.538Z,98882.88
2022-11-16T10:59:56.491Z,98879.34
2022-11-16T11:02:29.152Z,98875.91
2022-11-16T11:05:15.583Z,98862.41
2022-11-16T11:07:49.986Z,98869.34
2022-11-16T11:10:27.869Z,98861.41
2022-11-16T11:13:12.768Z,98855.03
2022-11-16T11:15:43.436Z,98850.00
2022-11-16T11:18:17.253Z,98845.75
2022-11-16T11:20:48.541Z,98845.66
2022-11-16T11:23:21.778Z,98842.00
2022-11-16T11:25:53.287Z,98837.47
2022-11-16T11:28:26.143Z,98832.13
2022-11-16T11:30:58.059Z,98827.34
2022-11-16T11:33:29.803Z,98825.28
2022-11-16T11:36:04.202Z,98826.56
2022-11-16T11:41:22.534Z,98814.88
2022-11-16T11:44:03.278Z,98814.53
2022-11-16T11:47:11.017Z,98803.84
2022-11-16T11:49:33.245Z,98808.69
2022-11-16T11:52:07.228Z,98812.53
2022-11-16T11:54:45.677Z,98798.47
2022-11-16T11:57:20.602Z,98796.97
2022-11-16T11:59:52.276Z,98797.47
2022-11-16T12:02:29.807Z,98795.47
2022-11-16T12:05:20.359Z,98786.47
2022-11-16T12:07:57.163Z,98788.13
2022-11-16T12:10:32.406Z,98782.13
2022-11-16T12:13:11.770Z,98784.13
2022-11-16T12:15:49.145Z,98784.78
2022-11-16T12:18:26.635Z,98778.94
2022-11-16T12:21:02.160Z,98772.78
2022-11-16T12:23:47.490Z,98772.75
2022-11-16T12:26:21.733Z,98768.75
2022-11-16T12:28:57.821Z,98765.75
2022-11-16T12:31:37.813Z,98756.72
2022-11-16T12:34:11.169Z,98755.88
2022-11-16T12:36:46.934Z,98754.19
2022-11-16T12:39:22.408Z,98754.72
2022-11-16T12:42:00.366Z,98746.84
2022-11-16T12:44:37.825Z,98746.66
2022-11-16T12:47:09.753Z,98750.53
2022-11-16T12:49:46.284Z,98745.19
2022-11-16T12:52:23.025Z,98748.69
2022-11-16T12:57:59.174Z,98748.53
2022-11-16T13:00:30.598Z,98743.50
2022-11-16T13:03:05.069Z,98736.28
2022-11-16T13:05:41.450Z,98740.81
2022-11-16T13:08:14.549Z,98735.97
2022-11-16T13:10:46.264Z,98736.47
2022-11-16T13:13:39.353Z,98728.25
2022-11-16T13:16:10.853Z,98737.66
2022-11-16T13:18:42.705Z,98733.78
2022-11-16T13:21:24.015Z,98728.09
2022-11-16T13:24:00.527Z,98733.13
2022-11-16T13:26:32.654Z,98726.59
2022-11-16T13:29:10.296Z,98730.28
2022-11-16T13:31:43.912Z,98733.97
2022-11-16T13:34:15.722Z,98729.59
2022-11-16T13:36:47.686Z,98722.09
2022-11-16T13:39:22.288Z,98725.44
2022-11-16T13:42:06.531Z,98725.78
2022-11-16T13:44:37.491Z,98730.78
2022-11-16T13:47:08.234Z,98731.28
2022-11-16T13:49:39.028Z,98729.28
2022-11-16T13:52:35.672Z,98730.44
2022-11-16T13:55:11.725Z,98732.78
2022-11-16T13:57:49.485Z,98730.78
2022-11-16T14:00:24.329Z,98723.75
2022-11-16T14:03:24.845Z,98731.97
2022-11-16T14:05:55.821Z,98724.59
2022-11-16T14:08:43.877Z,98722.25
2022-11-16T14:11:42.016Z,98728.22
2022-11-16T14:14:12.955Z,98727.34
2022-11-16T14:16:47.606Z,98728.75
2022-11-16T14:19:35.856Z,98729.22
2022-11-16T14:22:09.255Z,98720.69
2022-11-16T14:24:42.762Z,98723.00
2022-11-16T14:27:17.009Z,98718.66
2022-11-16T14:29:57.253Z,98728.69
2022-11-16T14:32:28.265Z,98733.19
2022-11-16T14:34:59.366Z,98733.19
2022-11-16T14:37:32.463Z,98723.81
2022-11-16T14:40:05.463Z,98717.31
2022-11-16T14:42:54.437Z,98718.47
2022-11-16T14:45:28.665Z,98723.63
2022-11-16T14:48:01.527Z,98720.44
2022-11-16T14:50:35.399Z,98722.28
2022-11-16T14:53:10.901Z,98713.59
2022-11-16T14:55:43.081Z,98710.03
2022-11-16T14:58:18.160Z,98711.38
2022-11-16T15:00:59.181Z,98720.53
2022-11-16T15:03:32.418Z,98715.66
2022-11-16T15:06:03.271Z,98728.00
2022-11-16T15:08:35.610Z,98719.31
2022-11-16T15:11:07.286Z,98723.47
2022-11-16T15:13:37.783Z,98719.66
2022-11-16T15:16:11.953Z,98718.13
2022-11-16T15:18:41.481Z,98720.78
2022-11-16T15:21:21.875Z,98726.97
2022-11-16T15:24:23.373Z,98726.97
2022-11-16T15:26:44.244Z,98725.97
2022-11-16T15:29:15.628Z,98724.28
2022-11-16T15:31:45.327Z,98733.00
2022-11-16T15:34:17.105Z,98732.00
2022-11-16T15:36:47.378Z,98731.81
2022-11-16T15:39:20.426Z,98736.19
2022-11-16T15:41:50.343Z,98732.03
2022-11-16T15:44:20.441Z,98729.88
2022-11-16T15:46:52.075Z,98734.53
2022-11-16T15:49:27.691Z,98736.38
2022-11-16T15:51:58.002Z,98731.53
2022-11-16T15:54:29.493Z,98727.38
2022-11-16T15:57:06.842Z,98724.50
2022-11-16T15:59:38.201Z,98731.38
2022-11-16T16:02:16.640Z,98724.34
2022-11-16T16:04:46.227Z,98721.50
2022-11-16T16:07:30.573Z,98728.03
2022-11-16T16:10:14.048Z,98730.66
2022-11-16T16:12:48.578Z,98735.66
2022-11-16T16:15:23.453Z,98729.28
2022-11-16T16:17:54.080Z,98734.47
2022-11-16T16:20:24.990Z,98734.31
2022-11-16T16:22:54.576Z,98730.66
2022-11-16T16:25:29.588Z,98729.97
2022-11-16T16:27:59.429Z,98724.94
2022-11-16T16:30:29.968Z,98721.44
2022-11-16T16:32:59.879Z,98717.91
2022-11-16T16:35:29.710Z,98710.44
2022-11-16T16:38:04.009Z,98707.09
2022-11-16T16:40:35.060Z,98715.63
2022-11-16T16:43:04.588Z,98715.78
2022-11-16T16:45:37.212Z,98713.44
2022-11-16T16:48:08.175Z,98709.41
2022-11-16T16:50:37.956Z,98704.44
2022-11-16T16:53:07.666Z,98701.75
2022-11-16T16:55:38.676Z,98713.44
2022-11-16T16:58:09.909Z,98702.22
2022-11-16T17:00:40.084Z,98697.25
2022-11-16T17:03:10.259Z,98710.94
2022-11-16T17:05:39.880Z,98712.75
2022-11-16T17:08:09.593Z,98708.09
2022-11-16T17:10:41.222Z,98708.59
2022-11-16T17:13:11.710Z,98696.88
2022-11-16T17:15:41.747Z,98698.56
2022-11-16T17:18:12.104Z,98697.91
2022-11-16T17:20:45.367Z,98698.50
2022-11-16T17:23:18.491Z,98697.19
2022-11-16T17:25:50.322Z,98695.81
2022-11-16T17:28:20.222Z,98693.47
2022-11-16T17:30:49.965Z,98687.13
2022-11-16T17:33:19.745Z,98689.63
2022-11-16T17:35:55.605Z,98685.81
2022-11-16T17:38:25.412Z,98686.28
2022-11-16T17:41:06.785Z,98681.63
2022-11-16T17:43:37.100Z,98677.13
2022-11-16T17:46:07.716Z,98681.13
2022-11-16T17:48:37.893Z,98688.28
2022-11-16T17:51:09.218Z,98678.44
2022-11-16T17:53:39.987Z,98680.94
2022-11-16T17:56:11.768Z,98675.44
2022-11-16T17:58:41.367Z,98682.66
2022-11-16T18:01:11.547Z,98679.16
2022-11-16T18:03:41.886Z,98691.00
2022-11-16T18:06:13.431Z,98687.16
2022-11-16T18:08:43.633Z,98684.00
2022-11-16T18:11:15.777Z,98673.94
2022-11-16T18:13:45.786Z,98673.94
2022-11-16T18:16:16.531Z,98670.94
2022-11-16T18:18:46.682Z,98667.59
2022-11-16T18:21:20.600Z,98668.28
2022-11-16T18:23:50.528Z,98666.63
2022-11-16T18:26:24.026Z,98673.09
2022-11-16T18:28:53.998Z,98672.41
2022-11-16T18:31:24.337Z,98668.41
2022-11-16T18:33:53.912Z,98662.22
2022-11-16T18:36:23.540Z,98660.03
2022-11-16T18:38:53.041Z,98666.34
2022-11-16T18:41:25.059Z,98670.72
2022-11-16T18:43:55.746Z,98675.22
2022-11-16T18:46:26.361Z,98666.69
2022-11-16T18:48:55.957Z,98665.16
2022-11-16T18:51:26.145Z,98678.81
2022-11-16T18:53:55.717Z,98672.00
2022-11-16T18:56:26.968Z,98676.47
2022-11-16T18:58:56.490Z,98672.59
2022-11-16T19:01:27.463Z,98673.94
2022-11-16T19:03:57.464Z,98669.56
2022-11-16T19:06:27.016Z,98671.03
2022-11-16T19:08:59.695Z,98665.72
2022-11-16T19:11:30.994Z,98665.88
2022-11-16T19:14:03.767Z,98666.34
2022-11-16T19:16:34.840Z,98665.78
2022-11-16T19:19:04.747Z,98666.13
2022-11-16T19:21:34.364Z,98665.41
2022-11-16T19:24:04.074Z,98674.25
2022-11-16T19:26:35.078Z,98663.72
2022-11-16T19:29:04.719Z,98659.94
2022-11-16T19:31:34.552Z,98667.09
2022-11-16T19:34:05.502Z,98668.38
2022-11-16T19:36:36.582Z,98660.69
2022-11-16T19:39:06.731Z,98664.34
2022-11-16T19:41:37.673Z,98668.16
2022-11-16T19:44:07.253Z,98672.69
2022-11-16T19:46:36.976Z,98671.16
2022-11-16T19:49:08.646Z,98671.31
2022-11-16T19:51:38.207Z,98664.28
2022-11-16T19:54:09.245Z,98669.94
2022-11-16T19:56:40.493Z,98673.91
2022-11-16T19:59:10.310Z,98670.56
2022-11-16T20:01:39.870Z,98673.50
2022-11-16T20:04:10.119Z,98672.00
2022-11-16T20:06:41.404Z,98682.97
2022-11-16T20:09:12.184Z,98679.63
2022-11-16T20:11:45.032Z,98678.09
2022-11-16T20:14:15.008Z,98679.25
2022-11-16T20:16:49.732Z,98683.06
2022-11-16T20:19:20.565Z,98683.38
2022-11-16T20:21:50.142Z,98675.69
2022-11-16T20:24:19.783Z,98670.78
2022-11-16T20:26:50.785Z,98676.56
2022-11-16T20:29:20.396Z,98666.06
2022-11-16T20:31:49.915Z,98661.19
2022-11-16T20:34:20.818Z,98659.00
2022-11-16T20:36:51.504Z,98657.47
2022-11-16T20:39:21.599Z,98656.94
2022-11-16T20:41:52.584Z,98652.59
2022-11-16T20:44:22.614Z,98652.03
2022-11-16T20:46:53.249Z,98656.69
2022-11-16T20:49:22.826Z,98662.03
2022-11-16T20:51:52.343Z,98662.03
2022-11-16T20:54:22.081Z,98661.94
2022-11-16T20:56:53.037Z,98663.75
2022-11-16T20:59:22.668Z,98665.28
2022-11-16T21:01:55.236Z,98657.97
2022-11-16T21:04:25.775Z,98646.66
2022-11-16T21:06:55.681Z,98656.44
2022-11-16T21:09:25.828Z,98649.06
2022-11-16T21:12:15.169Z,98638.41
2022-11-16T21:14:45.048Z,98632.78
2022-11-16T21:17:14.990Z,98635.59
2022-11-16T21:20:05.467Z,98643.44
2022-11-16T21:22:34.240Z,98638.56
2022-11-16T21:25:03.826Z,98643.91
2022-11-16T21:27:34.907Z,98641.09
2022-11-16T21:30:04.760Z,98641.69
2022-11-16T21:32:34.323Z,98638.03
2022-11-16T21:35:04.106Z,98638.88
2022-11-16T21:37:33.606Z,98640.56
2022-11-16T21:40:03.152Z,98640.56
2022-11-16T21:42:32.664Z,98641.25
2022-11-16T21:45:03.555Z,98641.38
2022-11-16T21:47:33.198Z,98639.69
2022-11-16T21:50:32.625Z,98642.22
2022-11-16T21:52:52.266Z,98642.22
2022-11-16T21:55:21.778Z,98636.75
2022-11-16T21:57:51.490Z,98644.19
2022-11-16T22:00:22.520Z,98642.38
2022-11-16T22:02:52.163Z,98634.53
2022-11-16T22:05:39.757Z,98633.09
2022-11-16T22:08:11.553Z,98633.44
2022-11-16T22:10:41.095Z,98624.50
2022-11-16T22:13:11.204Z,98620.69
2022-11-16T22:15:42.454Z,98623.22
2022-11-16T22:18:12.561Z,98613.38
2022-11-16T22:20:42.102Z,98621.81
2022-11-16T22:23:11.690Z,98614.19
2022-11-16T22:25:41.266Z,98621.19
2022-11-16T22:28:20.642Z,98618.09
2022-11-16T22:30:59.651Z,98619.06
2022-11-16T22:33:29.191Z,98613.75
2022-11-16T22:35:58.798Z,98611.38
2022-11-16T22:38:28.582Z,98609.84
2022-11-16T22:40:58.651Z,98608.34
2022-11-16T22:43:29.763Z,98607.28
2022-11-16T22:46:01.089Z,98601.66
2022-11-16T22:48:32.074Z,98596.06
2022-11-16T22:51:05.954Z,98598.44
2022-11-16T22:53:35.981Z,98595.75
2022-11-16T22:56:06.735Z,98596.47
2022-11-16T22:58:36.511Z,98587.47
2022-11-16T23:01:08.470Z,98587.78
2022-11-16T23:03:38.768Z,98578.66
2022-11-16T23:06:08.762Z,98578.22
2022-11-16T23:08:39.993Z,98580.56
2022-11-16T23:11:27.618Z,98583.69
2022-11-16T23:14:15.529Z,98583.16
2022-11-16T23:16:46.923Z,98581.72
2022-11-16T23:19:34.767Z,98572.22
2022-11-16T23:22:21.993Z,98566.44
2022-11-16T23:25:08.760Z,98574.28
2022-11-16T23:27:40.568Z,98568.13
2022-11-16T23:30:13.003Z,98573.97
2022-11-16T23:32:44.361Z,98577.91
2022-11-16T23:35:14.302Z,98569.63
2022-11-16T23:37:56.802Z,98568.50
2022-11-16T23:40:27.394Z,98570.03
2022-11-16T23:43:14.720Z,98565.53
2022-11-16T23:45:44.527Z,98564.16
2022-11-16T23:48:16.473Z,98569.19
2022-11-16T23:50:46.576Z,98566.81
2022-11-16T23:53:16.194Z,98572.69
2022-11-16T23:55:45.761Z,98569.47
2022-11-16T23:58:15.848Z,98571.16
